createdAt,value
2018-06-30T00:01:08.688Z,0.50
2018-06-30T00:03:43.630Z,1.37
2018-06-30T00:06:12.927Z,1.23
2018-06-30T00:08:42.074Z,0.50
2018-06-30T00:11:11.162Z,1.00
2018-06-30T00:13:40.488Z,5.13
2018-06-30T00:16:09.803Z,0.80
2018-06-30T00:18:39.476Z,0.70
2018-06-30T00:21:09.273Z,0.57
2018-06-30T00:23:39.488Z,0.50
2018-06-30T00:26:09.418Z,1.47
2018-06-30T00:28:39.333Z,0.63
2018-06-30T00:31:08.870Z,0.93
2018-06-30T00:33:38.180Z,0.50
2018-06-30T00:36:07.501Z,0.60
2018-06-30T00:38:36.792Z,1.27
2018-06-30T00:41:06.382Z,2.23
2018-06-30T00:43:35.910Z,0.50
2018-06-30T00:46:05.211Z,3.07
2018-06-30T00:48:34.349Z,0.70
2018-06-30T00:51:03.380Z,0.70
2018-06-30T00:53:32.666Z,0.63
2018-06-30T00:56:02.413Z,1.10
2018-06-30T00:58:31.696Z,0.50
2018-06-30T01:01:00.784Z,0.60
2018-06-30T01:03:29.873Z,0.60
2018-06-30T01:05:59.176Z,1.90
2018-06-30T01:08:28.536Z,1.70
2018-06-30T01:10:57.868Z,1.80
2018-06-30T01:13:27.431Z,0.50
2018-06-30T01:15:56.705Z,2.20
2018-06-30T01:18:26.019Z,0.50
2018-06-30T01:20:55.305Z,1.90
2018-06-30T01:23:24.382Z,1.10
2018-06-30T01:25:53.461Z,1.53
2018-06-30T01:28:22.547Z,0.80
2018-06-30T01:30:51.865Z,0.60
2018-06-30T01:33:21.158Z,0.60
2018-06-30T01:35:50.227Z,0.50
2018-06-30T01:38:19.333Z,3.50
2018-06-30T01:40:48.397Z,0.93
2018-06-30T01:43:17.736Z,0.63
2018-06-30T01:45:47.057Z,0.93
2018-06-30T01:48:16.141Z,0.60
2018-06-30T01:50:45.221Z,1.23
2018-06-30T01:53:14.541Z,1.03
2018-06-30T01:55:44.056Z,0.80
2018-06-30T01:58:13.591Z,0.50
2018-06-30T02:00:42.880Z,0.50
2018-06-30T02:03:12.271Z,0.40
2018-06-30T02:05:42.033Z,0.57
2018-06-30T02:08:11.328Z,0.80
2018-06-30T02:10:40.659Z,0.60
2018-06-30T02:13:09.961Z,0.50
2018-06-30T02:15:39.059Z,0.50
2018-06-30T02:18:08.166Z,0.50
2018-06-30T02:20:37.513Z,0.80
2018-06-30T02:23:06.829Z,0.50
2018-06-30T02:25:36.138Z,0.87
2018-06-30T02:28:05.666Z,1.90
2018-06-30T02:30:35.191Z,0.60
2018-06-30T02:33:04.728Z,0.60
2018-06-30T02:35:34.245Z,0.50
2018-06-30T02:38:03.801Z,1.33
2018-06-30T02:40:33.098Z,0.90
2018-06-30T02:43:02.782Z,0.53
2018-06-30T02:45:32.310Z,0.73
2018-06-30T02:48:01.613Z,1.00
2018-06-30T02:50:30.937Z,0.90
2018-06-30T02:53:00.230Z,0.90
2018-06-30T02:55:29.319Z,1.30
2018-06-30T02:57:58.662Z,0.40
2018-06-30T03:00:27.962Z,0.70
2018-06-30T03:02:57.264Z,0.87
2018-06-30T03:05:26.576Z,0.80
2018-06-30T03:07:55.891Z,0.60
2018-06-30T03:10:25.185Z,0.70
2018-06-30T03:12:54.511Z,1.87
2018-06-30T03:15:24.044Z,0.60
2018-06-30T03:17:53.576Z,0.60
2018-06-30T03:20:23.125Z,1.40
2018-06-30T03:22:52.661Z,2.93
2018-06-30T03:25:22.204Z,0.60
2018-06-30T03:27:51.848Z,0.60
2018-06-30T03:30:20.919Z,0.70
2018-06-30T03:32:50.013Z,1.63
2018-06-30T03:35:19.104Z,0.60
2018-06-30T03:37:48.184Z,4.23
2018-06-30T03:40:17.920Z,0.50
2018-06-30T03:42:47.231Z,0.53
2018-06-30T03:45:16.300Z,0.70
2018-06-30T03:47:45.393Z,1.70
2018-06-30T03:50:14.701Z,0.60
2018-06-30T03:52:44.261Z,0.90
2018-06-30T03:55:13.820Z,0.50
2018-06-30T03:57:43.112Z,0.50
2018-06-30T04:00:12.419Z,0.60
2018-06-30T04:02:41.705Z,0.50
2018-06-30T04:05:11.035Z,0.50
2018-06-30T04:07:40.578Z,0.50
2018-06-30T04:10:09.881Z,0.57
2018-06-30T04:12:38.959Z,0.50
2018-06-30T04:15:08.035Z,0.60
2018-06-30T04:17:37.108Z,0.83
2018-06-30T04:20:06.440Z,0.70
2018-06-30T04:22:35.975Z,0.83
2018-06-30T04:25:05.862Z,2.77
2018-06-30T04:27:35.149Z,0.40
2018-06-30T04:30:04.929Z,0.60
2018-06-30T04:32:34.475Z,0.50
2018-06-30T04:35:04.658Z,1.33
2018-06-30T04:37:33.947Z,1.03
2018-06-30T04:40:03.266Z,0.60
2018-06-30T04:42:32.793Z,0.60
2018-06-30T04:45:02.325Z,0.50
2018-06-30T04:47:31.840Z,0.90
2018-06-30T04:50:01.379Z,1.23
2018-06-30T04:52:30.935Z,0.50
2018-06-30T04:55:00.247Z,2.20
2018-06-30T04:57:29.875Z,1.60
2018-06-30T04:59:59.457Z,0.50
2018-06-30T05:02:28.769Z,0.50
2018-06-30T05:04:58.085Z,0.80
2018-06-30T05:07:27.388Z,0.60
2018-06-30T05:09:57.042Z,0.60
2018-06-30T05:12:26.576Z,0.50
2018-06-30T05:14:56.096Z,0.60
2018-06-30T05:17:25.151Z,0.50
2018-06-30T05:19:54.449Z,0.50
2018-06-30T05:22:23.808Z,0.50
2018-06-30T05:24:53.552Z,0.83
2018-06-30T05:27:23.076Z,0.70
2018-06-30T05:29:52.657Z,0.50
2018-06-30T05:32:21.977Z,7.87
2018-06-30T05:34:51.497Z,1.27
2018-06-30T05:37:20.780Z,0.60
2018-06-30T05:39:50.105Z,0.50
2018-06-30T05:42:19.987Z,0.60
2018-06-30T05:44:49.122Z,0.50
2018-06-30T05:47:18.442Z,0.50
2018-06-30T05:49:47.997Z,0.50
2018-06-30T05:52:17.309Z,2.90
2018-06-30T05:54:46.389Z,0.50
2018-06-30T05:57:15.490Z,0.50
2018-06-30T05:59:44.804Z,0.80
2018-06-30T06:02:14.118Z,0.50
2018-06-30T06:04:43.189Z,0.50
2018-06-30T06:07:12.274Z,0.87
2018-06-30T06:09:41.398Z,0.50
2018-06-30T06:12:10.643Z,0.60
2018-06-30T06:14:39.999Z,1.10
2018-06-30T06:17:09.529Z,1.73
2018-06-30T06:19:38.838Z,0.73
2018-06-30T06:22:08.153Z,0.57
2018-06-30T06:24:37.443Z,0.70
2018-06-30T06:27:06.741Z,3.43
2018-06-30T06:29:36.275Z,1.43
2018-06-30T06:32:05.553Z,4.10
2018-06-30T06:34:34.657Z,5.43
2018-06-30T06:37:03.710Z,9.50
2018-06-30T06:39:33.034Z,12.37
2018-06-30T06:42:02.324Z,12.93
2018-06-30T06:44:31.655Z,10.70
2018-06-30T06:47:00.948Z,24.87
2018-06-30T06:49:30.064Z,31.53
2018-06-30T06:51:59.409Z,26.10
2018-06-30T06:54:29.028Z,46.07
2018-06-30T06:56:58.365Z,45.67
2018-06-30T06:59:27.666Z,41.57
2018-06-30T07:01:56.810Z,54.60
2018-06-30T07:04:26.118Z,60.33
2018-06-30T07:06:55.583Z,64.43
2018-06-30T07:09:24.906Z,66.70
2018-06-30T07:11:54.220Z,62.47
2018-06-30T07:14:23.525Z,10.10
2018-06-30T07:16:52.845Z,9.80
2018-06-30T07:19:22.371Z,3.60
2018-06-30T07:21:51.796Z,3.93
2018-06-30T07:24:21.094Z,18.23
2018-06-30T07:26:50.416Z,0.63
2018-06-30T07:29:19.720Z,1.57
2018-06-30T07:31:49.248Z,3.13
2018-06-30T07:34:18.541Z,4.30
2018-06-30T07:36:47.988Z,2.50
2018-06-30T07:39:17.748Z,1.00
2018-06-30T07:41:47.070Z,1.57
2018-06-30T07:44:16.378Z,3.17
2018-06-30T07:46:45.906Z,1.60
2018-06-30T07:51:51.120Z,0.80
2018-06-30T07:54:20.208Z,0.70
2018-06-30T07:56:49.294Z,1.47
2018-06-30T07:59:18.382Z,2.10
2018-06-30T08:01:47.728Z,2.00
2018-06-30T08:04:17.269Z,0.90
2018-06-30T08:06:46.829Z,1.00
2018-06-30T08:09:16.121Z,6.10
2018-06-30T08:11:45.446Z,0.90
2018-06-30T08:14:14.727Z,1.43
2018-06-30T08:16:44.042Z,0.80
2018-06-30T08:19:13.627Z,1.37
2018-06-30T08:21:42.980Z,1.67
2018-06-30T08:24:12.061Z,1.40
2018-06-30T08:26:41.216Z,1.90
2018-06-30T08:29:10.293Z,4.47
2018-06-30T08:31:39.364Z,5.03
2018-06-30T08:34:08.509Z,2.07
2018-06-30T08:36:37.533Z,3.60
2018-06-30T08:39:10.191Z,4.83
2018-06-30T08:41:39.479Z,1.20
2018-06-30T08:44:09.281Z,2.00
2018-06-30T08:46:38.914Z,3.53
2018-06-30T08:49:08.520Z,3.60
2018-06-30T08:51:37.874Z,4.03
2018-06-30T08:54:07.425Z,1.20
2018-06-30T08:56:36.716Z,3.03
2018-06-30T08:59:05.818Z,1.77
2018-06-30T09:01:35.281Z,4.83
2018-06-30T09:04:04.381Z,2.33
2018-06-30T09:06:33.512Z,5.13
2018-06-30T09:09:02.916Z,1.40
2018-06-30T09:11:32.467Z,4.37
2018-06-30T09:14:02.007Z,3.63
2018-06-30T09:16:31.554Z,1.50
2018-06-30T09:19:00.916Z,3.37
2018-06-30T09:21:30.257Z,5.13
2018-06-30T09:23:59.817Z,1.00
2018-06-30T09:26:29.382Z,1.00
2018-06-30T09:28:58.929Z,2.30
2018-06-30T09:31:28.264Z,1.80
2018-06-30T09:33:57.598Z,1.10
2018-06-30T09:36:27.073Z,3.53
2018-06-30T09:38:56.566Z,0.80
2018-06-30T09:41:26.128Z,4.10
2018-06-30T09:43:55.444Z,2.93
2018-06-30T09:46:24.524Z,1.40
2018-06-30T09:48:53.672Z,0.80
2018-06-30T09:51:22.775Z,0.80
2018-06-30T09:53:52.095Z,2.13
2018-06-30T09:56:21.523Z,1.20
2018-06-30T09:58:50.903Z,1.20
2018-06-30T10:01:20.224Z,5.07
2018-06-30T10:03:49.559Z,2.63
2018-06-30T10:06:18.856Z,1.60
2018-06-30T10:08:48.180Z,5.43
2018-06-30T10:11:17.478Z,2.83
2018-06-30T10:13:46.781Z,1.47
2018-06-30T10:16:16.295Z,0.90
2018-06-30T10:18:46.217Z,2.10
2018-06-30T10:21:15.865Z,3.60
2018-06-30T10:23:45.305Z,2.10
2018-06-30T10:26:14.882Z,1.80
2018-06-30T10:28:44.504Z,3.43
2018-06-30T10:31:14.096Z,16.13
2018-06-30T10:33:43.117Z,6.30
2018-06-30T10:36:12.189Z,1.80
2018-06-30T10:38:41.269Z,6.10
2018-06-30T10:41:10.349Z,5.77
2018-06-30T10:43:39.469Z,2.97
2018-06-30T10:46:08.575Z,3.50
2018-06-30T10:48:37.927Z,1.50
2018-06-30T10:51:07.216Z,8.80
2018-06-30T10:53:37.013Z,1.83
2018-06-30T10:56:06.308Z,2.57
2018-06-30T10:58:35.416Z,2.50
2018-06-30T11:01:04.783Z,5.23
2018-06-30T11:03:34.080Z,2.10
2018-06-30T11:06:03.169Z,1.73
2018-06-30T11:08:32.476Z,2.40
2018-06-30T11:11:01.857Z,2.63
2018-06-30T11:13:31.122Z,3.70
2018-06-30T11:16:00.461Z,3.70
2018-06-30T11:18:29.805Z,8.67
2018-06-30T11:20:59.253Z,3.23
2018-06-30T11:23:28.384Z,2.77
2018-06-30T11:25:57.718Z,3.47
2018-06-30T11:28:27.050Z,1.83
2018-06-30T11:30:56.376Z,2.13
2018-06-30T11:33:25.694Z,6.90
2018-06-30T11:35:54.775Z,2.03
2018-06-30T11:38:24.088Z,1.50
2018-06-30T11:40:53.516Z,1.53
2018-06-30T11:43:23.217Z,1.47
2018-06-30T11:45:52.768Z,13.47
2018-06-30T11:48:23.235Z,2.40
2018-06-30T11:50:52.535Z,1.90
2018-06-30T11:53:23.597Z,1.50
2018-06-30T11:55:52.680Z,2.60
2018-06-30T11:58:21.780Z,1.20
2018-06-30T12:00:50.872Z,3.70
2018-06-30T12:03:20.239Z,9.40
2018-06-30T12:05:49.783Z,1.97
2018-06-30T12:08:19.112Z,1.03
2018-06-30T12:10:48.449Z,1.00
2018-06-30T12:13:18.015Z,1.27
2018-06-30T12:15:47.329Z,1.53
2018-06-30T12:18:16.665Z,4.10
2018-06-30T12:20:45.976Z,2.60
2018-06-30T12:23:15.329Z,2.67
2018-06-30T12:25:44.658Z,4.63
2018-06-30T12:28:13.967Z,5.57
2018-06-30T12:30:43.266Z,3.07
2018-06-30T12:33:12.371Z,1.20
2018-06-30T12:35:41.707Z,1.87
2018-06-30T12:38:11.420Z,1.53
2018-06-30T12:40:40.922Z,1.93
2018-06-30T12:43:10.254Z,1.37
2018-06-30T12:45:39.573Z,0.97
2018-06-30T12:48:08.900Z,1.00
2018-06-30T12:50:45.073Z,0.80
2018-06-30T12:53:14.385Z,0.93
2018-06-30T12:55:43.478Z,0.93
2018-06-30T12:58:12.589Z,1.03
2018-06-30T13:00:41.681Z,1.03
2018-06-30T13:03:10.753Z,1.17
2018-06-30T13:05:39.844Z,0.80
2018-06-30T13:08:09.190Z,1.33
2018-06-30T13:10:38.796Z,1.90
2018-06-30T13:13:08.164Z,0.80
2018-06-30T13:15:37.719Z,0.90
2018-06-30T13:18:07.026Z,1.27
2018-06-30T13:20:36.360Z,1.10
2018-06-30T13:23:05.921Z,1.43
2018-06-30T13:25:35.722Z,2.80
2018-06-30T13:28:05.057Z,5.23
2018-06-30T13:30:34.411Z,2.20
2018-06-30T13:33:03.749Z,1.40
2018-06-30T13:35:32.835Z,1.70
2018-06-30T13:38:02.483Z,5.87
2018-06-30T13:40:31.570Z,2.70
2018-06-30T13:43:01.097Z,3.00
2018-06-30T13:45:30.177Z,1.90
2018-06-30T13:47:59.542Z,2.07
2018-06-30T13:50:29.124Z,4.63
2018-06-30T13:52:58.493Z,1.60
2018-06-30T13:55:27.821Z,1.67
2018-06-30T13:57:57.129Z,1.93
2018-06-30T14:00:26.562Z,5.03
2018-06-30T14:02:55.855Z,6.27
2018-06-30T14:05:24.971Z,2.50
2018-06-30T14:07:54.052Z,2.83
2018-06-30T14:10:23.330Z,2.23
2018-06-30T14:12:52.726Z,2.70
2018-06-30T14:15:21.740Z,2.07
2018-06-30T14:17:50.819Z,2.30
2018-06-30T14:20:19.901Z,2.63
2018-06-30T14:22:49.232Z,1.43
2018-06-30T14:25:18.787Z,1.60
2018-06-30T14:27:48.097Z,4.50
2018-06-30T14:30:17.461Z,1.97
2018-06-30T14:32:46.768Z,2.13
2018-06-30T14:35:16.097Z,1.40
2018-06-30T14:37:45.423Z,4.53
2018-06-30T14:40:14.442Z,5.90
2018-06-30T14:42:43.536Z,3.23
2018-06-30T14:45:12.873Z,1.30
2018-06-30T14:47:42.425Z,11.57
2018-06-30T14:50:11.497Z,8.43
2018-06-30T14:52:40.590Z,1.47
2018-06-30T14:55:09.979Z,1.73
2018-06-30T14:57:39.280Z,2.40
2018-06-30T15:00:09.040Z,1.53
2018-06-30T15:02:38.651Z,3.10
2018-06-30T15:05:09.078Z,9.83
2018-06-30T15:07:38.380Z,1.10
2018-06-30T15:10:08.583Z,1.57
2018-06-30T15:12:38.186Z,2.03
2018-06-30T15:15:07.913Z,6.00
2018-06-30T15:17:37.245Z,8.47
2018-06-30T15:20:07.000Z,2.27
2018-06-30T15:22:36.938Z,1.33
2018-06-30T15:25:06.504Z,7.20
2018-06-30T15:27:35.816Z,1.60
2018-06-30T15:30:05.030Z,2.70
2018-06-30T15:32:34.094Z,1.90
2018-06-30T15:35:03.435Z,5.30
2018-06-30T15:37:32.967Z,2.57
2018-06-30T15:40:02.283Z,1.37
2018-06-30T15:42:31.428Z,6.33
2018-06-30T15:45:00.455Z,1.60
2018-06-30T15:47:29.796Z,1.30
2018-06-30T15:49:59.137Z,4.00
2018-06-30T15:52:28.446Z,2.00
2018-06-30T15:54:58.036Z,1.53
2018-06-30T15:57:27.308Z,1.40
2018-06-30T15:59:56.615Z,0.77
2018-06-30T16:02:25.911Z,1.67
2018-06-30T16:04:54.984Z,5.40
2018-06-30T16:07:24.294Z,4.00
2018-06-30T16:09:53.864Z,2.90
2018-06-30T16:12:23.508Z,7.90
2018-06-30T16:14:52.832Z,0.70
2018-06-30T16:17:22.126Z,0.90
2018-06-30T16:19:51.208Z,0.80
2018-06-30T16:22:20.540Z,0.90
2018-06-30T16:24:50.070Z,2.83
2018-06-30T16:27:19.369Z,5.90
2018-06-30T16:29:48.685Z,1.17
2018-06-30T16:32:18.208Z,0.70
2018-06-30T16:34:47.502Z,0.63
2018-06-30T16:37:16.810Z,1.50
2018-06-30T16:39:46.346Z,0.87
2018-06-30T16:42:15.642Z,2.70
2018-06-30T16:44:44.948Z,3.00
2018-06-30T16:47:14.477Z,1.50
2018-06-30T16:49:44.010Z,3.47
2018-06-30T16:52:13.334Z,5.13
2018-06-30T16:54:42.963Z,1.00
2018-06-30T16:57:12.249Z,0.70
2018-06-30T16:59:41.569Z,0.80
2018-06-30T17:02:10.875Z,1.57
2018-06-30T17:04:40.187Z,1.20
2018-06-30T17:07:09.741Z,1.23
2018-06-30T17:09:39.296Z,0.90
2018-06-30T17:12:08.616Z,0.77
2018-06-30T17:14:37.948Z,0.70
2018-06-30T17:17:07.497Z,2.40
2018-06-30T17:19:36.929Z,0.60
2018-06-30T17:22:06.001Z,0.70
2018-06-30T17:24:35.350Z,0.70
2018-06-30T17:27:05.289Z,1.33
2018-06-30T17:29:34.576Z,0.70
2018-06-30T17:32:03.876Z,1.00
2018-06-30T17:34:33.836Z,0.63
2018-06-30T17:37:03.385Z,0.90
2018-06-30T17:39:32.950Z,1.00
2018-06-30T17:42:02.285Z,3.80
2018-06-30T17:44:31.820Z,0.70
2018-06-30T17:47:01.202Z,0.80
2018-06-30T17:49:30.305Z,4.83
2018-06-30T17:51:59.392Z,0.73
2018-06-30T17:54:28.713Z,0.80
2018-06-30T17:56:58.265Z,1.10
2018-06-30T17:59:27.564Z,0.80
2018-06-30T18:01:56.877Z,0.70
2018-06-30T18:04:27.214Z,0.77
2018-06-30T18:06:56.505Z,0.80
2018-06-30T18:09:25.584Z,2.97
2018-06-30T18:11:54.905Z,0.60
2018-06-30T18:14:24.195Z,0.83
2018-06-30T18:16:53.509Z,1.90
2018-06-30T18:19:22.817Z,1.20
2018-06-30T18:21:52.152Z,0.63
2018-06-30T18:24:21.688Z,1.23
2018-06-30T18:26:50.996Z,6.10
2018-06-30T18:29:20.084Z,2.27
2018-06-30T18:31:49.163Z,0.80
2018-06-30T18:34:18.557Z,2.80
2018-06-30T18:36:48.006Z,1.13
2018-06-30T18:39:17.336Z,3.57
2018-06-30T18:41:46.850Z,0.83
2018-06-30T18:44:16.376Z,0.93
2018-06-30T18:46:45.972Z,3.37
2018-06-30T18:49:15.839Z,0.77
2018-06-30T18:51:45.368Z,9.30
2018-06-30T18:54:14.656Z,2.20
2018-06-30T18:56:43.981Z,2.00
2018-06-30T18:59:13.533Z,5.73
2018-06-30T19:01:43.043Z,1.20
2018-06-30T19:04:12.340Z,4.93
2018-06-30T19:06:41.415Z,7.17
2018-06-30T19:09:11.585Z,10.10
2018-06-30T19:11:41.105Z,1.57
2018-06-30T19:14:10.638Z,0.77
2018-06-30T19:16:40.183Z,0.60
2018-06-30T19:19:09.486Z,1.13
2018-06-30T19:21:38.569Z,4.97
2018-06-30T19:24:07.891Z,4.63
2018-06-30T19:26:37.207Z,0.70
2018-06-30T19:29:06.565Z,0.70
2018-06-30T19:31:35.868Z,1.03
2018-06-30T19:34:05.690Z,3.13
2018-06-30T19:36:34.787Z,1.20
2018-06-30T19:39:06.314Z,6.60
2018-06-30T19:41:35.870Z,0.70
2018-06-30T19:44:05.164Z,2.00
2018-06-30T19:46:34.476Z,0.73
2018-06-30T19:49:04.185Z,1.07
2018-06-30T19:51:33.257Z,2.80
2018-06-30T19:54:02.648Z,1.90
2018-06-30T19:56:31.924Z,1.33
2018-06-30T19:59:01.285Z,1.53
2018-06-30T20:01:30.831Z,1.67
2018-06-30T20:04:00.120Z,1.93
2018-06-30T20:06:29.445Z,1.97
2018-06-30T20:08:58.778Z,9.97
2018-06-30T20:11:28.088Z,1.37
2018-06-30T20:13:57.384Z,1.47
2018-06-30T20:16:26.725Z,12.00
2018-06-30T20:18:56.017Z,1.57
2018-06-30T20:21:25.100Z,1.10
2018-06-30T20:23:54.432Z,1.40
2018-06-30T20:26:23.952Z,2.00
2018-06-30T20:28:53.252Z,2.90
2018-06-30T20:31:22.561Z,2.40
2018-06-30T20:33:51.921Z,1.17
2018-06-30T20:36:21.181Z,0.90
2018-06-30T20:38:51.130Z,1.07
2018-06-30T20:41:20.205Z,1.20
2018-06-30T20:43:49.272Z,1.23
2018-06-30T20:46:18.614Z,1.43
2018-06-30T20:48:48.156Z,1.30
2018-06-30T20:51:17.695Z,1.23
2018-06-30T20:53:47.014Z,3.23
2018-06-30T20:56:16.339Z,6.73
2018-06-30T20:58:45.615Z,2.33
2018-06-30T21:01:14.921Z,1.50
2018-06-30T21:03:44.229Z,0.90
2018-06-30T21:06:13.312Z,6.23
2018-06-30T21:08:42.655Z,1.27
2018-06-30T21:11:11.957Z,0.93
2018-06-30T21:13:41.054Z,1.43
2018-06-30T21:16:10.158Z,1.13
2018-06-30T21:18:39.488Z,0.90
2018-06-30T21:21:08.776Z,1.27
2018-06-30T21:23:37.993Z,1.00
2018-06-30T21:26:07.080Z,0.90
2018-06-30T21:28:36.138Z,1.43
2018-06-30T21:31:05.512Z,1.27
2018-06-30T21:33:35.191Z,6.10
2018-06-30T21:36:04.292Z,2.50
2018-06-30T21:38:33.407Z,1.43
2018-06-30T21:41:02.476Z,1.47
2018-06-30T21:43:31.554Z,2.90
2018-06-30T21:46:00.868Z,1.63
2018-06-30T21:48:30.159Z,1.83
2018-06-30T21:50:59.265Z,1.43
2018-06-30T21:53:28.588Z,8.00
2018-06-30T21:55:58.133Z,4.90
2018-06-30T21:58:27.442Z,2.40
2018-06-30T22:01:02.083Z,2.37
2018-06-30T22:03:31.969Z,2.37
2018-06-30T22:06:01.048Z,2.47
2018-06-30T22:08:30.128Z,2.73
2018-06-30T22:10:59.268Z,10.10
2018-06-30T22:13:28.791Z,3.80
2018-06-30T22:15:58.334Z,3.43
2018-06-30T22:18:27.712Z,2.87
2018-06-30T22:20:57.316Z,1.93
2018-06-30T22:23:26.597Z,2.23
2018-06-30T22:25:55.683Z,2.30
2018-06-30T22:28:24.781Z,2.97
2018-06-30T22:30:54.095Z,5.03
2018-06-30T22:33:23.385Z,1.80
2018-06-30T22:35:52.470Z,4.10
2018-06-30T22:38:21.549Z,4.00
2018-06-30T22:40:50.624Z,2.40
2018-06-30T22:43:19.945Z,2.40
2018-06-30T22:45:49.260Z,2.40
2018-06-30T22:48:18.329Z,1.50
2018-06-30T22:50:47.640Z,4.23
2018-06-30T22:53:17.194Z,2.40
2018-06-30T22:55:46.722Z,2.60
2018-06-30T22:58:16.853Z,2.50
2018-06-30T23:00:45.941Z,3.27
2018-06-30T23:03:15.010Z,2.13
2018-06-30T23:05:44.089Z,2.00
2018-06-30T23:08:13.405Z,1.90
2018-06-30T23:10:42.948Z,2.00
2018-06-30T23:13:12.223Z,1.77
2018-06-30T23:15:41.549Z,1.70
2018-06-30T23:18:10.838Z,2.07
2018-06-30T23:20:40.146Z,2.20
2018-06-30T23:23:10.493Z,1.70
2018-06-30T23:25:40.587Z,1.80
2018-06-30T23:28:10.006Z,1.90
2018-06-30T23:30:39.100Z,2.10
2018-06-30T23:33:08.443Z,1.80
2018-06-30T23:35:37.725Z,1.77
2018-06-30T23:38:06.850Z,2.07
2018-06-30T23:40:35.928Z,2.60
2018-06-30T23:43:05.033Z,1.50
2018-06-30T23:45:34.096Z,1.87
2018-06-30T23:48:03.178Z,1.33
2018-06-30T23:50:32.249Z,1.90
2018-06-30T23:53:01.568Z,3.27
2018-06-30T23:55:30.863Z,1.80
2018-06-30T23:58:00.753Z,1.97
